sensor_id;sensor_type;location;lat;lon;timestamp;pressure;altitude;pressure_sealevel;temperature;humidity
32131;BME280;18639;50.716;7.086;2023-03-31T00:01:37;99439.31;;;11.90;100.00
32131;BME280;18639;50.716;7.086;2023-03-31T00:04:07;99429.97;;;11.77;100.00
32131;BME280;18639;50.716;7.086;2023-03-31T00:06:36;99425.34;;;11.81;100.00
32131;BME280;18639;50.716;7.086;2023-03-31T00:09:12;99416.34;;;11.75;100.00
32131;BME280;18639;50.716;7.086;2023-03-31T00:11:39;99388.31;;;11.60;100.00
32131;BME280;18639;50.716;7.086;2023-03-31T00:14:05;99400.50;;;11.69;100.00
32131;BME280;18639;50.716;7.086;2023-03-31T00:16:35;99399.63;;;11.59;100.00
32131;BME280;18639;50.716;7.086;2023-03-31T00:19:00;99380.19;;;11.44;100.00
32131;BME280;18639;50.716;7.086;2023-03-31T00:21:27;99392.81;;;11.58;100.00
32131;BME280;18639;50.716;7.086;2023-03-31T00:24:04;99392.53;;;11.61;100.00
32131;BME280;18639;50.716;7.086;2023-03-31T00:26:30;99383.22;;;11.49;100.00
32131;BME280;18639;50.716;7.086;2023-03-31T00:28:56;99379.69;;;11.50;100.00
32131;BME280;18639;50.716;7.086;2023-03-31T00:31:22;99378.44;;;11.44;100.00
32131;BME280;18639;50.716;7.086;2023-03-31T00:33:48;99358.13;;;11.39;100.00
32131;BME280;18639;50.716;7.086;2023-03-31T00:36:14;99372.88;;;11.49;100.00
32131;BME280;18639;50.716;7.086;2023-03-31T00:38:47;99373.13;;;11.46;100.00
32131;BME280;18639;50.716;7.086;2023-03-31T00:41:13;99357.88;;;11.43;100.00
32131;BME280;18639;50.716;7.086;2023-03-31T00:43:39;99359.38;;;11.45;100.00
32131;BME280;18639;50.716;7.086;2023-03-31T00:46:12;99357.63;;;11.46;100.00
32131;BME280;18639;50.716;7.086;2023-03-31T00:48:48;99329.06;;;11.26;100.00
32131;BME280;18639;50.716;7.086;2023-03-31T00:51:15;99327.59;;;11.33;100.00
32131;BME280;18639;50.716;7.086;2023-03-31T00:53:41;99341.53;;;11.42;100.00
32131;BME280;18639;50.716;7.086;2023-03-31T00:56:11;99335.78;;;11.38;100.00
32131;BME280;18639;50.716;7.086;2023-03-31T00:58:38;99307.41;;;11.27;100.00
32131;BME280;18639;50.716;7.086;2023-03-31T01:01:09;99299.00;;;11.25;100.00
32131;BME280;18639;50.716;7.086;2023-03-31T01:03:39;99313.06;;;11.32;100.00
32131;BME280;18639;50.716;7.086;2023-03-31T01:06:05;99297.34;;;11.24;100.00
32131;BME280;18639;50.716;7.086;2023-03-31T01:08:35;99282.47;;;11.17;100.00
32131;BME280;18639;50.716;7.086;2023-03-31T01:11:03;99292.88;;;11.26;100.00
32131;BME280;18639;50.716;7.086;2023-03-31T01:13:31;99303.50;;;11.33;100.00
32131;BME280;18639;50.716;7.086;2023-03-31T01:15:58;99278.31;;;11.25;100.00
32131;BME280;18639;50.716;7.086;2023-03-31T01:18:24;99291.38;;;11.33;100.00
32131;BME280;18639;50.716;7.086;2023-03-31T01:21:43;99279.66;;;11.29;100.00
32131;BME280;18639;50.716;7.086;2023-03-31T01:24:23;99279.28;;;11.34;100.00
32131;BME280;18639;50.716;7.086;2023-03-31T01:30:23;99265.28;;;11.36;100.00
32131;BME280;18639;50.716;7.086;2023-03-31T01:33:07;99267.88;;;11.36;100.00
32131;BME280;18639;50.716;7.086;2023-03-31T01:35:46;99258.63;;;11.44;100.00
32131;BME280;18639;50.716;7.086;2023-03-31T01:46:34;99243.00;;;11.55;100.00
32131;BME280;18639;50.716;7.086;2023-03-31T01:51:59;99243.84;;;11.65;100.00
32131;BME280;18639;50.716;7.086;2023-03-31T01:54:41;99231.03;;;11.63;100.00
32131;BME280;18639;50.716;7.086;2023-03-31T01:57:14;99239.91;;;11.70;100.00
32131;BME280;18639;50.716;7.086;2023-03-31T02:02:19;99217.44;;;11.71;100.00
32131;BME280;18639;50.716;7.086;2023-03-31T02:04:52;99223.63;;;11.79;100.00
32131;BME280;18639;50.716;7.086;2023-03-31T02:07:24;99209.66;;;11.71;100.00
32131;BME280;18639;50.716;7.086;2023-03-31T02:09:56;99196.72;;;11.71;100.00
32131;BME280;18639;50.716;7.086;2023-03-31T02:12:25;99203.31;;;11.75;100.00
32131;BME280;18639;50.716;7.086;2023-03-31T02:14:54;99196.50;;;11.74;100.00
32131;BME280;18639;50.716;7.086;2023-03-31T02:17:23;99172.72;;;11.59;100.00
32131;BME280;18639;50.716;7.086;2023-03-31T02:19:58;99168.38;;;11.60;100.00
32131;BME280;18639;50.716;7.086;2023-03-31T02:22:30;99171.38;;;11.65;100.00
32131;BME280;18639;50.716;7.086;2023-03-31T02:25:00;99168.53;;;11.58;100.00
32131;BME280;18639;50.716;7.086;2023-03-31T02:27:32;99146.59;;;11.53;100.00
32131;BME280;18639;50.716;7.086;2023-03-31T02:29:58;99139.25;;;11.48;100.00
32131;BME280;18639;50.716;7.086;2023-03-31T02:32:30;99130.38;;;11.51;100.00
32131;BME280;18639;50.716;7.086;2023-03-31T02:34:56;99111.56;;;11.39;100.00
32131;BME280;18639;50.716;7.086;2023-03-31T02:37:22;99119.63;;;11.46;100.00
32131;BME280;18639;50.716;7.086;2023-03-31T02:39:51;99109.81;;;11.39;100.00
32131;BME280;18639;50.716;7.086;2023-03-31T02:42:18;99099.75;;;11.36;100.00
32131;BME280;18639;50.716;7.086;2023-03-31T02:44:43;99111.84;;;11.36;100.00
32131;BME280;18639;50.716;7.086;2023-03-31T02:47:12;99107.63;;;11.35;100.00
32131;BME280;18639;50.716;7.086;2023-03-31T02:49:41;99074.28;;;11.32;100.00
32131;BME280;18639;50.716;7.086;2023-03-31T02:52:34;99049.09;;;11.24;100.00
32131;BME280;18639;50.716;7.086;2023-03-31T02:58:11;99044.22;;;11.21;100.00
32131;BME280;18639;50.716;7.086;2023-03-31T03:00:50;99023.91;;;11.17;100.00
32131;BME280;18639;50.716;7.086;2023-03-31T03:03:35;99027.19;;;11.19;100.00
32131;BME280;18639;50.716;7.086;2023-03-31T03:06:35;99016.44;;;11.23;100.00
32131;BME280;18639;50.716;7.086;2023-03-31T03:09:16;99018.19;;;11.23;100.00
32131;BME280;18639;50.716;7.086;2023-03-31T03:12:21;99020.13;;;11.21;100.00
32131;BME280;18639;50.716;7.086;2023-03-31T03:14:52;98999.41;;;11.11;100.00
32131;BME280;18639;50.716;7.086;2023-03-31T03:17:27;99011.78;;;11.17;100.00
32131;BME280;18639;50.716;7.086;2023-03-31T03:19:59;99028.94;;;11.18;100.00
32131;BME280;18639;50.716;7.086;2023-03-31T03:22:25;99030.59;;;11.10;100.00
32131;BME280;18639;50.716;7.086;2023-03-31T03:24:50;99000.63;;;11.07;100.00
32131;BME280;18639;50.716;7.086;2023-03-31T03:27:16;99007.03;;;11.22;100.00
32131;BME280;18639;50.716;7.086;2023-03-31T03:29:41;98997.66;;;11.21;100.00
32131;BME280;18639;50.716;7.086;2023-03-31T03:32:08;98974.13;;;11.15;100.00
32131;BME280;18639;50.716;7.086;2023-03-31T03:34:33;98993.03;;;11.25;100.00
32131;BME280;18639;50.716;7.086;2023-03-31T03:36:59;98939.28;;;11.09;100.00
32131;BME280;18639;50.716;7.086;2023-03-31T03:39:24;98959.28;;;11.26;100.00
32131;BME280;18639;50.716;7.086;2023-03-31T03:41:50;98934.38;;;11.06;100.00
32131;BME280;18639;50.716;7.086;2023-03-31T03:44:15;98944.59;;;11.27;100.00
32131;BME280;18639;50.716;7.086;2023-03-31T03:46:40;98960.88;;;11.27;100.00
32131;BME280;18639;50.716;7.086;2023-03-31T03:49:05;98964.97;;;11.30;100.00
32131;BME280;18639;50.716;7.086;2023-03-31T03:51:31;98948.94;;;11.26;100.00
32131;BME280;18639;50.716;7.086;2023-03-31T03:53:56;98950.31;;;11.21;100.00
32131;BME280;18639;50.716;7.086;2023-03-31T03:56:21;98955.34;;;11.32;100.00
32131;BME280;18639;50.716;7.086;2023-03-31T03:58:47;98947.97;;;11.27;100.00
32131;BME280;18639;50.716;7.086;2023-03-31T04:01:12;98925.94;;;11.23;100.00
32131;BME280;18639;50.716;7.086;2023-03-31T04:03:38;98890.72;;;11.03;100.00
32131;BME280;18639;50.716;7.086;2023-03-31T04:06:03;98943.75;;;11.36;100.00
32131;BME280;18639;50.716;7.086;2023-03-31T04:08:29;98927.41;;;11.35;100.00
32131;BME280;18639;50.716;7.086;2023-03-31T04:10:54;98938.56;;;11.46;100.00
32131;BME280;18639;50.716;7.086;2023-03-31T04:13:19;98923.16;;;11.44;100.00
32131;BME280;18639;50.716;7.086;2023-03-31T04:15:45;98918.16;;;11.43;100.00
32131;BME280;18639;50.716;7.086;2023-03-31T04:18:11;98905.78;;;11.36;100.00
32131;BME280;18639;50.716;7.086;2023-03-31T04:20:44;98896.94;;;11.29;100.00
32131;BME280;18639;50.716;7.086;2023-03-31T04:23:09;98875.72;;;11.26;100.00
32131;BME280;18639;50.716;7.086;2023-03-31T04:25:34;98867.78;;;11.27;100.00
32131;BME280;18639;50.716;7.086;2023-03-31T04:28:03;98851.78;;;11.14;100.00
32131;BME280;18639;50.716;7.086;2023-03-31T04:30:31;98883.88;;;11.31;100.00
32131;BME280;18639;50.716;7.086;2023-03-31T04:33:01;98839.25;;;11.19;100.00
32131;BME280;18639;50.716;7.086;2023-03-31T04:35:29;98855.03;;;11.26;100.00
32131;BME280;18639;50.716;7.086;2023-03-31T04:38:13;98815.19;;;11.09;100.00
32131;BME280;18639;50.716;7.086;2023-03-31T04:40:43;98824.03;;;11.16;100.00
32131;BME280;18639;50.716;7.086;2023-03-31T04:43:08;98807.56;;;11.08;100.00
32131;BME280;18639;50.716;7.086;2023-03-31T04:45:34;98798.19;;;11.07;100.00
32131;BME280;18639;50.716;7.086;2023-03-31T04:47:59;98784.91;;;10.92;100.00
32131;BME280;18639;50.716;7.086;2023-03-31T04:50:25;98812.06;;;11.15;100.00
32131;BME280;18639;50.716;7.086;2023-03-31T04:52:50;98791.94;;;11.09;100.00
32131;BME280;18639;50.716;7.086;2023-03-31T04:55:15;98778.06;;;11.10;100.00
32131;BME280;18639;50.716;7.086;2023-03-31T04:57:40;98734.31;;;10.80;100.00
32131;BME280;18639;50.716;7.086;2023-03-31T05:00:06;98769.63;;;11.08;100.00
32131;BME280;18639;50.716;7.086;2023-03-31T05:02:32;98760.22;;;11.07;100.00
32131;BME280;18639;50.716;7.086;2023-03-31T05:04:57;98768.53;;;11.11;100.00
32131;BME280;18639;50.716;7.086;2023-03-31T05:07:23;98747.03;;;11.10;100.00
32131;BME280;18639;50.716;7.086;2023-03-31T05:09:48;98761.69;;;11.19;100.00
32131;BME280;18639;50.716;7.086;2023-03-31T05:12:13;98752.44;;;11.17;100.00
32131;BME280;18639;50.716;7.086;2023-03-31T05:14:38;98701.41;;;10.82;100.00
32131;BME280;18639;50.716;7.086;2023-03-31T05:17:04;98756.91;;;11.24;100.00
32131;BME280;18639;50.716;7.086;2023-03-31T05:19:29;98731.78;;;11.07;100.00
32131;BME280;18639;50.716;7.086;2023-03-31T05:21:55;98744.53;;;11.18;100.00
32131;BME280;18639;50.716;7.086;2023-03-31T05:24:21;98727.41;;;11.17;100.00
32131;BME280;18639;50.716;7.086;2023-03-31T05:26:46;98722.38;;;11.16;100.00
32131;BME280;18639;50.716;7.086;2023-03-31T05:29:19;98699.72;;;11.27;100.00
32131;BME280;18639;50.716;7.086;2023-03-31T05:31:45;98700.53;;;11.28;100.00
32131;BME280;18639;50.716;7.086;2023-03-31T05:34:10;98689.47;;;11.35;100.00
32131;BME280;18639;50.716;7.086;2023-03-31T05:36:35;98688.03;;;11.23;100.00
32131;BME280;18639;50.716;7.086;2023-03-31T05:39:02;98680.28;;;11.23;100.00
32131;BME280;18639;50.716;7.086;2023-03-31T05:41:27;98706.25;;;11.31;100.00
32131;BME280;18639;50.716;7.086;2023-03-31T05:43:53;98698.78;;;11.28;100.00
32131;BME280;18639;50.716;7.086;2023-03-31T05:46:18;98690.88;;;11.30;100.00
32131;BME280;18639;50.716;7.086;2023-03-31T05:48:43;98687.84;;;11.34;100.00
32131;BME280;18639;50.716;7.086;2023-03-31T05:51:09;98689.78;;;11.32;100.00
32131;BME280;18639;50.716;7.086;2023-03-31T05:53:34;98673.09;;;11.17;100.00
32131;BME280;18639;50.716;7.086;2023-03-31T05:56:01;98661.81;;;11.18;100.00
32131;BME280;18639;50.716;7.086;2023-03-31T05:58:28;98683.69;;;11.24;100.00
32131;BME280;18639;50.716;7.086;2023-03-31T06:01:07;98665.91;;;11.11;100.00
32131;BME280;18639;50.716;7.086;2023-03-31T06:03:34;98638.47;;;11.10;100.00
32131;BME280;18639;50.716;7.086;2023-03-31T06:06:01;98651.78;;;11.15;100.00
32131;BME280;18639;50.716;7.086;2023-03-31T06:08:28;98627.44;;;10.81;100.00
32131;BME280;18639;50.716;7.086;2023-03-31T06:10:53;98669.56;;;11.18;100.00
32131;BME280;18639;50.716;7.086;2023-03-31T06:13:18;98657.22;;;11.12;100.00
32131;BME280;18639;50.716;7.086;2023-03-31T06:15:52;98633.75;;;10.96;100.00
32131;BME280;18639;50.716;7.086;2023-03-31T06:18:17;98649.06;;;11.07;100.00
32131;BME280;18639;50.716;7.086;2023-03-31T06:20:43;98652.22;;;11.11;100.00
32131;BME280;18639;50.716;7.086;2023-03-31T06:23:08;98630.16;;;11.07;100.00
32131;BME280;18639;50.716;7.086;2023-03-31T06:25:36;98645.66;;;11.16;100.00
32131;BME280;18639;50.716;7.086;2023-03-31T06:28:02;98625.69;;;11.09;100.00
32131;BME280;18639;50.716;7.086;2023-03-31T06:30:34;98630.53;;;11.12;100.00
32131;BME280;18639;50.716;7.086;2023-03-31T06:32:59;98620.06;;;11.13;100.00
32131;BME280;18639;50.716;7.086;2023-03-31T06:35:25;98631.84;;;11.25;100.00
32131;BME280;18639;50.716;7.086;2023-03-31T06:37:50;98628.56;;;11.23;100.00
32131;BME280;18639;50.716;7.086;2023-03-31T06:40:16;98620.25;;;11.29;100.00
32131;BME280;18639;50.716;7.086;2023-03-31T06:42:42;98606.94;;;11.24;100.00
32131;BME280;18639;50.716;7.086;2023-03-31T06:45:07;98634.81;;;11.30;100.00
32131;BME280;18639;50.716;7.086;2023-03-31T06:47:33;98607.16;;;11.13;100.00
32131;BME280;18639;50.716;7.086;2023-03-31T06:49:58;98629.91;;;11.27;100.00
32131;BME280;18639;50.716;7.086;2023-03-31T06:52:23;98603.97;;;11.19;100.00
32131;BME280;18639;50.716;7.086;2023-03-31T06:54:48;98621.56;;;11.33;100.00
32131;BME280;18639;50.716;7.086;2023-03-31T06:57:14;98626.03;;;11.41;100.00
32131;BME280;18639;50.716;7.086;2023-03-31T06:59:39;98627.06;;;11.48;100.00
32131;BME280;18639;50.716;7.086;2023-03-31T07:02:04;98624.31;;;11.50;100.00
32131;BME280;18639;50.716;7.086;2023-03-31T07:04:30;98627.81;;;11.58;100.00
32131;BME280;18639;50.716;7.086;2023-03-31T07:06:58;98634.16;;;11.64;100.00
32131;BME280;18639;50.716;7.086;2023-03-31T07:09:23;98607.94;;;11.59;100.00
32131;BME280;18639;50.716;7.086;2023-03-31T07:11:48;98621.81;;;11.75;100.00
32131;BME280;18639;50.716;7.086;2023-03-31T07:14:14;98587.16;;;11.68;100.00
32131;BME280;18639;50.716;7.086;2023-03-31T07:16:39;98568.66;;;11.81;100.00
32131;BME280;18639;50.716;7.086;2023-03-31T07:19:05;98608.66;;;12.30;100.00
32131;BME280;18639;50.716;7.086;2023-03-31T07:21:31;98620.75;;;12.47;100.00
32131;BME280;18639;50.716;7.086;2023-03-31T07:23:56;98612.22;;;12.55;100.00
32131;BME280;18639;50.716;7.086;2023-03-31T07:26:22;98611.56;;;12.61;100.00
32131;BME280;18639;50.716;7.086;2023-03-31T07:28:48;98605.28;;;12.63;100.00
32131;BME280;18639;50.716;7.086;2023-03-31T07:31:14;98592.81;;;12.67;100.00
32131;BME280;18639;50.716;7.086;2023-03-31T07:33:39;98579.91;;;12.75;100.00
32131;BME280;18639;50.716;7.086;2023-03-31T07:36:06;98606.25;;;13.04;100.00
32131;BME280;18639;50.716;7.086;2023-03-31T07:38:32;98597.78;;;12.94;100.00
32131;BME280;18639;50.716;7.086;2023-03-31T07:40:57;98585.16;;;12.91;100.00
32131;BME280;18639;50.716;7.086;2023-03-31T07:43:23;98597.78;;;12.94;100.00
32131;BME280;18639;50.716;7.086;2023-03-31T07:45:48;98596.50;;;12.98;100.00
32131;BME280;18639;50.716;7.086;2023-03-31T07:48:13;98601.22;;;13.03;100.00
32131;BME280;18639;50.716;7.086;2023-03-31T07:50:38;98599.09;;;12.98;100.00
32131;BME280;18639;50.716;7.086;2023-03-31T07:53:04;98612.91;;;13.07;100.00
32131;BME280;18639;50.716;7.086;2023-03-31T07:55:29;98605.91;;;12.99;100.00
32131;BME280;18639;50.716;7.086;2023-03-31T07:57:55;98606.91;;;13.06;100.00
32131;BME280;18639;50.716;7.086;2023-03-31T08:00:21;98608.34;;;13.09;100.00
32131;BME280;18639;50.716;7.086;2023-03-31T08:02:47;98608.75;;;13.30;100.00
32131;BME280;18639;50.716;7.086;2023-03-31T08:05:14;98591.75;;;13.36;100.00
32131;BME280;18639;50.716;7.086;2023-03-31T08:07:41;98568.72;;;13.41;100.00
32131;BME280;18639;50.716;7.086;2023-03-31T08:10:09;98582.72;;;13.64;100.00
32131;BME280;18639;50.716;7.086;2023-03-31T08:12:35;98570.22;;;13.60;100.00
32131;BME280;18639;50.716;7.086;2023-03-31T08:15:00;98570.41;;;13.66;100.00
32131;BME280;18639;50.716;7.086;2023-03-31T08:17:26;98584.84;;;13.77;100.00
32131;BME280;18639;50.716;7.086;2023-03-31T08:19:57;98552.22;;;13.50;100.00
32131;BME280;18639;50.716;7.086;2023-03-31T08:22:23;98573.94;;;13.73;100.00
32131;BME280;18639;50.716;7.086;2023-03-31T08:24:48;98571.38;;;13.81;100.00
32131;BME280;18639;50.716;7.086;2023-03-31T08:27:13;98585.31;;;13.80;99.31
32131;BME280;18639;50.716;7.086;2023-03-31T08:29:38;98560.19;;;13.73;99.61
32131;BME280;18639;50.716;7.086;2023-03-31T08:32:04;98564.88;;;13.69;99.68
32131;BME280;18639;50.716;7.086;2023-03-31T08:34:31;98571.38;;;13.65;100.00
32131;BME280;18639;50.716;7.086;2023-03-31T08:36:56;98574.63;;;13.67;99.63
32131;BME280;18639;50.716;7.086;2023-03-31T08:39:21;98566.66;;;13.61;100.00
32131;BME280;18639;50.716;7.086;2023-03-31T08:41:56;98541.50;;;13.53;100.00
32131;BME280;18639;50.716;7.086;2023-03-31T08:46:54;98555.94;;;13.88;100.00
32131;BME280;18639;50.716;7.086;2023-03-31T08:49:21;98534.03;;;13.82;100.00
32131;BME280;18639;50.716;7.086;2023-03-31T08:51:50;98562.41;;;14.08;98.87
32131;BME280;18639;50.716;7.086;2023-03-31T08:56:53;98549.38;;;15.10;96.05
32131;BME280;18639;50.716;7.086;2023-03-31T08:59:26;98545.59;;;15.81;91.88
32131;BME280;18639;50.716;7.086;2023-03-31T09:01:59;98550.41;;;16.51;87.86
32131;BME280;18639;50.716;7.086;2023-03-31T09:07:06;98540.16;;;18.00;77.45
32131;BME280;18639;50.716;7.086;2023-03-31T09:12:34;98519.34;;;19.15;65.80
32131;BME280;18639;50.716;7.086;2023-03-31T09:15:09;98512.88;;;18.98;61.30
32131;BME280;18639;50.716;7.086;2023-03-31T09:17:43;98509.47;;;19.04;63.29
32131;BME280;18639;50.716;7.086;2023-03-31T09:20:21;98506.66;;;19.05;63.52
32131;BME280;18639;50.716;7.086;2023-03-31T09:22:56;98510.06;;;18.51;65.34
32131;BME280;18639;50.716;7.086;2023-03-31T09:25:26;98518.16;;;17.88;66.36
32131;BME280;18639;50.716;7.086;2023-03-31T09:27:55;98502.69;;;17.22;68.89
32131;BME280;18639;50.716;7.086;2023-03-31T09:30:26;98514.72;;;16.81;71.78
32131;BME280;18639;50.716;7.086;2023-03-31T09:35:30;98486.25;;;16.35;72.43
32131;BME280;18639;50.716;7.086;2023-03-31T09:37:58;98490.59;;;16.28;71.48
32131;BME280;18639;50.716;7.086;2023-03-31T09:40:25;98446.44;;;15.97;74.48
32131;BME280;18639;50.716;7.086;2023-03-31T09:43:02;98496.13;;;16.25;71.67
32131;BME280;18639;50.716;7.086;2023-03-31T09:45:29;98508.47;;;16.02;72.47
32131;BME280;18639;50.716;7.086;2023-03-31T09:48:01;98496.59;;;15.85;72.69
32131;BME280;18639;50.716;7.086;2023-03-31T09:50:28;98468.25;;;15.52;74.53
32131;BME280;18639;50.716;7.086;2023-03-31T09:52:56;98481.56;;;15.49;76.86
32131;BME280;18639;50.716;7.086;2023-03-31T09:55:54;98491.41;;;15.39;74.37
32131;BME280;18639;50.716;7.086;2023-03-31T09:58:22;98489.34;;;15.35;75.53
32131;BME280;18639;50.716;7.086;2023-03-31T10:01:01;98490.41;;;15.26;76.23
32131;BME280;18639;50.716;7.086;2023-03-31T10:03:28;98462.75;;;15.25;76.60
32131;BME280;18639;50.716;7.086;2023-03-31T10:05:55;98473.91;;;15.10;75.32
32131;BME280;18639;50.716;7.086;2023-03-31T10:08:26;98486.03;;;15.18;76.04
32131;BME280;18639;50.716;7.086;2023-03-31T10:11:06;98464.94;;;15.13;76.15
32131;BME280;18639;50.716;7.086;2023-03-31T10:13:58;98476.22;;;15.28;76.88
32131;BME280;18639;50.716;7.086;2023-03-31T10:16:34;98460.22;;;15.16;75.40
32131;BME280;18639;50.716;7.086;2023-03-31T10:19:27;98482.75;;;15.24;77.58
32131;BME280;18639;50.716;7.086;2023-03-31T10:22:00;98489.06;;;15.07;75.31
32131;BME280;18639;50.716;7.086;2023-03-31T10:24:36;98489.44;;;14.96;76.66
32131;BME280;18639;50.716;7.086;2023-03-31T10:27:04;98487.59;;;14.82;77.35
32131;BME280;18639;50.716;7.086;2023-03-31T10:29:32;98471.75;;;14.68;78.11
32131;BME280;18639;50.716;7.086;2023-03-31T10:32:15;98457.84;;;14.53;78.04
32131;BME280;18639;50.716;7.086;2023-03-31T10:34:42;98469.47;;;14.65;78.39
32131;BME280;18639;50.716;7.086;2023-03-31T10:37:15;98443.94;;;14.46;78.28
32131;BME280;18639;50.716;7.086;2023-03-31T10:39:42;98473.94;;;14.57;80.03
32131;BME280;18639;50.716;7.086;2023-03-31T10:42:08;98453.81;;;14.51;78.64
32131;BME280;18639;50.716;7.086;2023-03-31T10:44:36;98466.88;;;14.65;78.84
32131;BME280;18639;50.716;7.086;2023-03-31T10:49:39;98479.84;;;14.96;80.18
32131;BME280;18639;50.716;7.086;2023-03-31T10:52:16;98475.72;;;15.10;82.70
32131;BME280;18639;50.716;7.086;2023-03-31T10:54:50;98469.97;;;15.37;81.06
32131;BME280;18639;50.716;7.086;2023-03-31T10:57:17;98458.13;;;15.87;78.53
32131;BME280;18639;50.716;7.086;2023-03-31T11:02:53;98464.84;;;16.25;74.36
32131;BME280;18639;50.716;7.086;2023-03-31T11:05:41;98469.81;;;16.06;72.57
32131;BME280;18639;50.716;7.086;2023-03-31T11:13:36;98477.94;;;15.58;76.22
32131;BME280;18639;50.716;7.086;2023-03-31T11:16:17;98467.38;;;15.37;78.59
32131;BME280;18639;50.716;7.086;2023-03-31T11:27:25;98435.91;;;15.01;77.13
32131;BME280;18639;50.716;7.086;2023-03-31T11:32:42;98431.78;;;15.15;76.75
32131;BME280;18639;50.716;7.086;2023-03-31T11:38:38;98428.41;;;15.44;76.03
32131;BME280;18639;50.716;7.086;2023-03-31T11:41:18;98412.31;;;15.26;75.02
32131;BME280;18639;50.716;7.086;2023-03-31T11:43:51;98429.47;;;15.35;78.81
32131;BME280;18639;50.716;7.086;2023-03-31T11:46:20;98426.75;;;15.28;76.04
32131;BME280;18639;50.716;7.086;2023-03-31T11:48:54;98393.38;;;15.17;76.62
32131;BME280;18639;50.716;7.086;2023-03-31T11:54:35;98419.47;;;15.09;75.32
32131;BME280;18639;50.716;7.086;2023-03-31T11:57:08;98421.59;;;15.05;76.77
32131;BME280;18639;50.716;7.086;2023-03-31T11:59:36;98454.06;;;14.87;75.52
32131;BME280;18639;50.716;7.086;2023-03-31T12:02:13;98446.91;;;14.66;83.60
32131;BME280;18639;50.716;7.086;2023-03-31T12:04:49;98449.13;;;14.46;86.68
32131;BME280;18639;50.716;7.086;2023-03-31T12:07:33;98450.88;;;14.15;83.44
32131;BME280;18639;50.716;7.086;2023-03-31T12:10:28;98431.47;;;13.78;89.82
32131;BME280;18639;50.716;7.086;2023-03-31T12:13:22;98419.34;;;13.63;89.81
32131;BME280;18639;50.716;7.086;2023-03-31T12:16:04;98401.06;;;13.56;93.40
32131;BME280;18639;50.716;7.086;2023-03-31T12:18:33;98393.63;;;13.45;91.82
32131;BME280;18639;50.716;7.086;2023-03-31T12:21:02;98401.69;;;13.58;89.91
32131;BME280;18639;50.716;7.086;2023-03-31T12:23:32;98395.69;;;13.58;93.36
32131;BME280;18639;50.716;7.086;2023-03-31T12:28:40;98411.81;;;13.92;87.50
32131;BME280;18639;50.716;7.086;2023-03-31T12:31:11;98405.06;;;14.14;89.41
32131;BME280;18639;50.716;7.086;2023-03-31T12:33:43;98398.41;;;14.19;87.84
32131;BME280;18639;50.716;7.086;2023-03-31T12:36:51;98390.09;;;14.24;87.49
32131;BME280;18639;50.716;7.086;2023-03-31T12:39:22;98387.09;;;14.35;87.22
32131;BME280;18639;50.716;7.086;2023-03-31T12:50:26;98378.97;;;14.69;85.30
32131;BME280;18639;50.716;7.086;2023-03-31T12:53:26;98357.13;;;14.78;86.71
32131;BME280;18639;50.716;7.086;2023-03-31T12:55:57;98363.75;;;14.81;84.18
32131;BME280;18639;50.716;7.086;2023-03-31T13:01:07;98352.34;;;15.04;84.99
32131;BME280;18639;50.716;7.086;2023-03-31T13:03:37;98326.78;;;15.08;83.52
32131;BME280;18639;50.716;7.086;2023-03-31T13:06:04;98343.75;;;15.33;82.00
32131;BME280;18639;50.716;7.086;2023-03-31T13:08:59;98335.00;;;15.49;81.33
32131;BME280;18639;50.716;7.086;2023-03-31T13:14:16;98347.97;;;15.34;84.38
32131;BME280;18639;50.716;7.086;2023-03-31T13:16:44;98358.34;;;15.05;87.66
32131;BME280;18639;50.716;7.086;2023-03-31T13:19:12;98356.88;;;14.88;87.83
32131;BME280;18639;50.716;7.086;2023-03-31T13:21:56;98342.34;;;14.79;86.44
32131;BME280;18639;50.716;7.086;2023-03-31T13:24:22;98342.91;;;14.66;85.36
32131;BME280;18639;50.716;7.086;2023-03-31T13:26:49;98351.22;;;14.61;86.04
32131;BME280;18639;50.716;7.086;2023-03-31T13:34:24;98348.56;;;14.69;81.27
32131;BME280;18639;50.716;7.086;2023-03-31T13:37:00;98350.94;;;14.79;81.54
32131;BME280;18639;50.716;7.086;2023-03-31T13:51:16;98346.38;;;14.96;79.16
32131;BME280;18639;50.716;7.086;2023-03-31T13:57:13;98346.88;;;14.99;78.07
32131;BME280;18639;50.716;7.086;2023-03-31T14:05:36;98337.56;;;15.05;76.89
32131;BME280;18639;50.716;7.086;2023-03-31T14:10:36;98337.88;;;15.02;77.11
32131;BME280;18639;50.716;7.086;2023-03-31T14:15:55;98332.78;;;14.94;77.13
32131;BME280;18639;50.716;7.086;2023-03-31T14:18:33;98330.16;;;14.94;75.48
32131;BME280;18639;50.716;7.086;2023-03-31T14:21:20;98336.72;;;14.90;77.30
32131;BME280;18639;50.716;7.086;2023-03-31T14:26:52;98344.38;;;14.68;81.95
32131;BME280;18639;50.716;7.086;2023-03-31T14:32:24;98321.28;;;14.65;87.43
32131;BME280;18639;50.716;7.086;2023-03-31T14:35:25;98313.28;;;14.52;89.18
32131;BME280;18639;50.716;7.086;2023-03-31T14:37:55;98300.19;;;14.46;86.79
32131;BME280;18639;50.716;7.086;2023-03-31T14:40:20;98287.72;;;14.41;90.37
32131;BME280;18639;50.716;7.086;2023-03-31T14:42:46;98302.25;;;14.50;85.14
32131;BME280;18639;50.716;7.086;2023-03-31T14:45:29;98300.56;;;14.57;84.98
32131;BME280;18639;50.716;7.086;2023-03-31T14:48:13;98282.16;;;14.44;77.08
32131;BME280;18639;50.716;7.086;2023-03-31T14:50:44;98303.78;;;14.59;78.67
32131;BME280;18639;50.716;7.086;2023-03-31T14:53:21;98296.47;;;14.63;77.71
32131;BME280;18639;50.716;7.086;2023-03-31T14:55:47;98277.19;;;14.57;76.62
32131;BME280;18639;50.716;7.086;2023-03-31T14:58:18;98283.81;;;14.60;77.14
32131;BME280;18639;50.716;7.086;2023-03-31T15:00:48;98289.66;;;14.62;76.44
32131;BME280;18639;50.716;7.086;2023-03-31T15:03:13;98280.06;;;14.62;76.09
32131;BME280;18639;50.716;7.086;2023-03-31T15:05:40;98299.81;;;14.71;76.51